Time;durP1;ratioP1;P1;durP2;ratioP2;P2;SDS_P1;SDS_P2;PMS_P1;PMS_P2;Temp;Humidity;BMP_temperature;BMP_pressure;BME280_temperature;BME280_humidity;BME280_pressure;Samples;Min_cycle;Max_cycle;Signal;HPM_P1;HPM_P2
2022/07/06 00:01:46;;;;;;;;;;;;;;;21.05;87.66;95240.38;5133792;28;1064;-49
2022/07/06 00:04:12;;;;;;;;;;;;;;;21.11;87.99;95249.50;5133846;28;981;-49
2022/07/06 00:06:38;;;;;;;;;;;;;;;21.13;87.75;95245.50;5133722;28;1009;-49
2022/07/06 00:09:05;;;;;;;;;;;;;;;21.11;86.42;95247.63;5133844;28;1906;-49
2022/07/06 00:11:31;;;;;;;;;;;;;;;21.03;86.79;95245.19;5133665;28;988;-49
2022/07/06 00:13:57;;;;;;;;;;;;;;;20.95;87.78;95243.59;5134227;27;1074;-49
2022/07/06 00:16:23;;;;;;;;;;;;;;;20.92;87.21;95235.88;5137640;27;1028;-49
2022/07/06 00:18:49;;;;;;;;;;;;;;;20.92;87.22;95230.44;5137647;27;1060;-49
2022/07/06 00:21:15;;;;;;;;;;;;;;;20.84;87.22;95244.34;5137445;27;992;-49
2022/07/06 00:23:41;;;;;;;;;;;;;;;20.82;86.43;95232.84;5137476;27;1036;-49
2022/07/06 00:26:08;;;;;;;;;;;;;;;20.70;87.39;95227.31;5137121;27;1182;-49
2022/07/06 00:28:34;;;;;;;;;;;;;;;20.80;86.06;95230.34;5137305;27;1909;-49
2022/07/06 00:31:00;;;;;;;;;;;;;;;20.95;85.36;95231.91;5137398;27;1040;-49
2022/07/06 00:33:26;;;;;;;;;;;;;;;20.67;86.76;95217.72;5137520;27;992;-49
2022/07/06 00:35:52;;;;;;;;;;;;;;;20.40;87.66;95218.97;5118730;27;1143;-49
2022/07/06 00:38:18;;;;;;;;;;;;;;;20.23;87.79;95219.50;5137270;27;1041;-49
2022/07/06 00:40:44;;;;;;;;;;;;;;;20.19;88.10;95220.19;5136953;27;1067;-49
2022/07/06 00:43:10;;;;;;;;;;;;;;;20.25;88.12;95216.56;5147569;27;1165;-49
2022/07/06 00:45:36;;;;;;;;;;;;;;;20.32;88.37;95214.66;5157676;27;1020;-49
2022/07/06 00:48:02;;;;;;;;;;;;;;;20.32;88.73;95211.09;5157902;27;1047;-49
2022/07/06 00:50:29;;;;;;;;;;;;;;;20.42;89.03;95206.00;5157478;27;1909;-49
2022/07/06 00:52:56;;;;;;;;;;;;;;;20.58;87.10;95202.75;5157812;27;1016;-49
2022/07/06 00:55:23;;;;;;;;;;;;;;;20.63;86.61;95210.25;5158036;27;971;-49
2022/07/06 00:57:49;;;;;;;;;;;;;;;20.61;86.57;95204.22;5139389;27;991;-49
2022/07/06 01:00:17;;;;;;;;;;;;;;;20.48;86.93;95197.78;5157448;27;1210;-49
2022/07/06 01:02:43;;;;;;;;;;;;;;;20.26;87.74;95200.06;5157470;27;1012;-49
2022/07/06 01:05:10;;;;;;;;;;;;;;;20.27;87.75;95200.91;5157277;27;988;-49
2022/07/06 01:07:38;;;;;;;;;;;;;;;20.33;88.90;95199.19;5157327;27;980;-49
2022/07/06 01:10:04;;;;;;;;;;;;;;;20.45;87.93;95190.09;5157253;27;1906;-49
2022/07/06 01:12:31;;;;;;;;;;;;;;;20.47;86.81;95179.03;5157123;27;995;-49
2022/07/06 01:14:57;;;;;;;;;;;;;;;20.08;86.11;95168.25;5157216;27;1844;-49
2022/07/06 01:17:23;;;;;;;;;;;;;;;19.82;87.36;95173.84;5157135;27;1023;-49
2022/07/06 01:19:49;;;;;;;;;;;;;;;19.67;88.43;95166.81;5157291;27;1022;-49
2022/07/06 01:22:15;;;;;;;;;;;;;;;19.60;88.56;95168.75;5156840;27;1048;-49
2022/07/06 01:24:41;;;;;;;;;;;;;;;19.77;87.91;95170.94;5156538;27;1075;-49
2022/07/06 01:27:07;;;;;;;;;;;;;;;19.89;87.82;95175.47;5156705;27;1111;-49
2022/07/06 01:29:34;;;;;;;;;;;;;;;19.81;88.38;95173.03;5157156;27;1914;-49
2022/07/06 01:32:01;;;;;;;;;;;;;;;19.93;88.78;95177.75;5156871;27;1019;-49
2022/07/06 01:34:27;;;;;;;;;;;;;;;19.95;87.95;95173.75;5156692;27;1106;-49
2022/07/06 01:36:53;;;;;;;;;;;;;;;19.84;87.65;95182.59;5157206;27;1063;-49
2022/07/06 01:39:19;;;;;;;;;;;;;;;19.46;86.87;95186.09;5156768;27;1142;-48
2022/07/06 01:41:45;;;;;;;;;;;;;;;19.29;87.58;95189.31;5156538;27;1039;-48
2022/07/06 01:44:11;;;;;;;;;;;;;;;19.13;89.52;95189.78;5137257;27;1969;-48
2022/07/06 01:46:37;;;;;;;;;;;;;;;19.22;90.00;95196.63;5135916;27;1056;-48
2022/07/06 01:49:04;;;;;;;;;;;;;;;19.39;89.65;95188.00;5135872;27;1930;-48
2022/07/06 01:51:30;;;;;;;;;;;;;;;19.40;89.24;95195.09;5135756;27;961;-49
2022/07/06 01:53:56;;;;;;;;;;;;;;;19.47;90.13;95193.22;5135893;27;972;-49
2022/07/06 01:56:22;;;;;;;;;;;;;;;19.66;89.12;95207.72;5135493;27;1012;-49
2022/07/06 01:58:48;;;;;;;;;;;;;;;19.68;87.94;95206.44;5135601;27;1025;-48
2022/07/06 02:01:17;;;;;;;;;;;;;;;19.70;87.83;95198.91;5135896;27;957;-48
2022/07/06 02:03:44;;;;;;;;;;;;;;;19.70;87.33;95198.91;5135522;27;1039;-48
2022/07/06 02:06:11;;;;;;;;;;;;;;;19.65;87.89;95201.47;5135220;27;1031;-48
2022/07/06 02:08:38;;;;;;;;;;;;;;;19.52;87.51;95198.81;5135318;27;2000;-48
2022/07/06 02:11:05;;;;;;;;;;;;;;;19.57;87.71;95201.69;5135297;27;1087;-48
2022/07/06 02:13:31;;;;;;;;;;;;;;;19.77;86.16;95198.06;5135456;27;957;-49
2022/07/06 02:15:56;;;;;;;;;;;;;;;19.66;86.35;95205.00;5135555;27;987;-48
2022/07/06 02:18:22;;;;;;;;;;;;;;;19.62;86.52;95201.91;5135016;27;1020;-48
2022/07/06 02:20:49;;;;;;;;;;;;;;;19.39;87.09;95196.13;5135244;27;1044;-49
2022/07/06 02:23:15;;;;;;;;;;;;;;;19.40;88.39;95193.22;5134994;27;964;-49
2022/07/06 02:25:41;;;;;;;;;;;;;;;19.48;88.02;95194.84;5135071;27;1092;-49
2022/07/06 02:28:07;;;;;;;;;;;;;;;19.40;87.45;95195.94;5134894;27;1190;-49
2022/07/06 02:30:33;;;;;;;;;;;;;;;19.30;86.76;95185.56;5135160;27;1905;-48
2022/07/06 02:32:59;;;;;;;;;;;;;;;19.25;87.29;95190.78;5135002;27;965;-48
2022/07/06 02:35:25;;;;;;;;;;;;;;;19.30;86.95;95196.41;5134887;27;1064;-49
2022/07/06 02:37:51;;;;;;;;;;;;;;;19.34;86.36;95199.50;5134151;27;1044;-48
2022/07/06 02:40:17;;;;;;;;;;;;;;;19.38;86.57;95198.03;5134752;27;1033;-48
2022/07/06 02:42:43;;;;;;;;;;;;;;;19.48;85.74;95201.13;5141326;27;1219;-49
2022/07/06 02:45:10;;;;;;;;;;;;;;;19.47;86.34;95204.06;5155643;27;968;-49
2022/07/06 02:47:37;;;;;;;;;;;;;;;19.18;85.88;95202.69;5155295;27;1028;-49
2022/07/06 02:50:03;;;;;;;;;;;;;;;18.91;86.66;95209.03;5155296;27;1979;-49
2022/07/06 02:52:29;;;;;;;;;;;;;;;19.09;87.55;95207.53;5155299;27;1036;-49
2022/07/06 02:54:55;;;;;;;;;;;;;;;19.11;87.13;95203.53;5155398;27;1050;-49
2022/07/06 02:57:21;;;;;;;;;;;;;;;18.92;86.52;95210.69;5155319;27;976;-49
2022/07/06 02:59:49;;;;;;;;;;;;;;;18.90;84.91;95215.47;5155463;27;1008;-48
2022/07/06 03:02:16;;;;;;;;;;;;;;;18.73;86.83;95204.22;5155290;27;964;-49
2022/07/06 03:04:42;;;;;;;;;;;;;;;18.74;87.90;95221.31;5154877;27;1047;-49
2022/07/06 03:07:08;;;;;;;;;;;;;;;18.61;88.57;95224.88;5155106;27;1561;-48
2022/07/06 03:09:34;;;;;;;;;;;;;;;18.65;88.43;95211.75;5154820;27;2041;-48
2022/07/06 03:12:00;;;;;;;;;;;;;;;18.79;88.14;95224.22;5154997;27;1059;-48
2022/07/06 03:14:26;;;;;;;;;;;;;;;18.87;88.42;95225.91;5155148;27;1039;-48
2022/07/06 03:16:53;;;;;;;;;;;;;;;18.89;88.22;95224.66;5155278;27;980;-49
2022/07/06 03:19:19;;;;;;;;;;;;;;;18.87;88.52;95231.31;5154802;27;1027;-48
2022/07/06 03:21:45;;;;;;;;;;;;;;;19.05;87.17;95219.84;5155094;27;1020;-49
2022/07/06 03:24:11;;;;;;;;;;;;;;;19.08;87.28;95219.41;5154541;27;1079;-49
2022/07/06 03:26:37;;;;;;;;;;;;;;;18.69;87.97;95219.22;5155051;27;1110;-49
2022/07/06 03:29:03;;;;;;;;;;;;;;;18.75;89.51;95219.44;5154810;27;1991;-49
2022/07/06 03:31:29;;;;;;;;;;;;;;;18.86;89.47;95225.06;5154967;27;1078;-49
2022/07/06 03:33:55;;;;;;;;;;;;;;;18.94;89.70;95224.03;5154883;27;995;-49
2022/07/06 03:36:21;;;;;;;;;;;;;;;18.90;88.08;95215.47;5154654;27;1015;-49
2022/07/06 03:38:47;;;;;;;;;;;;;;;18.64;88.92;95227.16;5154583;27;991;-49
2022/07/06 03:41:13;;;;;;;;;;;;;;;18.59;90.08;95231.53;5154974;27;968;-49
2022/07/06 03:43:39;;;;;;;;;;;;;;;18.78;89.33;95240.66;5140054;27;1168;-49
2022/07/06 03:46:05;;;;;;;;;;;;;;;18.81;88.54;95238.41;5134098;28;957;-49
2022/07/06 03:48:31;;;;;;;;;;;;;;;18.77;87.61;95231.72;5135691;27;1036;-48
2022/07/06 03:50:57;;;;;;;;;;;;;;;18.77;87.81;95231.72;5138105;27;1898;-48
2022/07/06 03:53:23;;;;;;;;;;;;;;;18.65;88.63;95220.69;5137796;27;974;-49
2022/07/06 03:58:34;;;;;;;;;;;;;;;18.83;89.68;95216.53;5137846;27;1032;-48
2022/07/06 04:01:00;;;;;;;;;;;;;;;18.92;90.08;95218.81;5138145;27;988;-48
2022/07/06 04:03:26;;;;;;;;;;;;;;;18.99;89.73;95220.66;5137778;27;1059;-48
2022/07/06 04:05:52;;;;;;;;;;;;;;;19.12;90.23;95223.34;5137659;27;1083;-48
2022/07/06 04:08:19;;;;;;;;;;;;;;;19.23;89.56;95230.81;5137865;27;1106;-48
2022/07/06 04:10:45;;;;;;;;;;;;;;;19.22;89.25;95228.34;5137695;27;1898;-49
2022/07/06 04:13:12;;;;;;;;;;;;;;;19.27;90.06;95236.66;5137828;27;954;-49
2022/07/06 04:15:38;;;;;;;;;;;;;;;19.40;89.96;95236.59;5137642;27;1115;-49
2022/07/06 04:18:04;;;;;;;;;;;;;;;19.56;89.51;95235.31;5137655;27;1024;-49
2022/07/06 04:20:30;;;;;;;;;;;;;;;19.80;88.69;95243.78;5137425;27;1013;-49
2022/07/06 04:22:58;;;;;;;;;;;;;;;19.96;89.04;95246.00;5137817;27;973;-49
2022/07/06 04:25:24;;;;;;;;;;;;;;;20.10;87.10;95244.03;5137215;27;1186;-49
2022/07/06 04:27:50;;;;;;;;;;;;;;;20.19;87.11;95250.84;5137509;27;953;-49
2022/07/06 04:30:16;;;;;;;;;;;;;;;20.42;86.50;95255.72;5137181;27;1909;-49
2022/07/06 04:32:42;;;;;;;;;;;;;;;20.60;84.04;95262.28;5137516;27;969;-49
2022/07/06 04:35:08;;;;;;;;;;;;;;;20.80;83.81;95256.72;5136742;27;1123;-49
2022/07/06 04:37:34;;;;;;;;;;;;;;;20.94;82.97;95250.09;5137491;27;972;-49
2022/07/06 04:40:00;;;;;;;;;;;;;;;21.09;81.58;95252.44;5137150;27;949;-49
2022/07/06 04:42:26;;;;;;;;;;;;;;;21.15;80.99;95254.28;5141540;27;1216;-49
2022/07/06 04:44:52;;;;;;;;;;;;;;;21.40;82.06;95267.81;5157660;27;1981;-49
2022/07/06 04:47:18;;;;;;;;;;;;;;;21.53;80.71;95263.31;5157740;27;1087;-49
2022/07/06 04:49:45;;;;;;;;;;;;;;;21.55;78.98;95264.78;5157483;27;1994;-49
2022/07/06 04:52:11;;;;;;;;;;;;;;;21.65;79.30;95272.41;5157642;27;1019;-49
2022/07/06 04:54:37;;;;;;;;;;;;;;;21.63;81.14;95275.34;5157700;27;1011;-49
2022/07/06 04:57:03;;;;;;;;;;;;;;;21.74;80.64;95278.34;5157527;27;2044;-49
2022/07/06 04:59:29;;;;;;;;;;;;;;;21.69;80.64;95276.31;5156998;27;980;-49
2022/07/06 05:01:55;;;;;;;;;;;;;;;21.75;81.87;95286.28;5157322;27;961;-49
2022/07/06 05:04:22;;;;;;;;;;;;;;;21.52;81.40;95281.53;5157062;27;1043;-49
2022/07/06 05:06:48;;;;;;;;;;;;;;;21.60;81.32;95289.38;5157409;27;995;-49
2022/07/06 05:09:14;;;;;;;;;;;;;;;21.70;81.76;95283.41;5157188;27;1991;-49
2022/07/06 05:11:40;;;;;;;;;;;;;;;21.80;80.25;95277.47;5157428;27;1014;-49
2022/07/06 05:14:06;;;;;;;;;;;;;;;21.91;80.71;95295.75;5157506;27;1015;-49
2022/07/06 05:16:32;;;;;;;;;;;;;;;22.13;80.28;95290.63;5157198;27;980;-49
2022/07/06 05:18:58;;;;;;;;;;;;;;;22.20;76.39;95285.91;5157138;27;1018;-49
2022/07/06 05:21:24;;;;;;;;;;;;;;;22.18;79.85;95292.66;5156850;27;1838;-49
2022/07/06 05:23:51;;;;;;;;;;;;;;;22.22;79.53;95277.53;5157319;27;942;-49
2022/07/06 05:26:17;;;;;;;;;;;;;;;22.69;75.86;95283.16;5156698;27;1125;-49
2022/07/06 05:28:43;;;;;;;;;;;;;;;23.22;74.39;95289.66;5157180;27;1107;-51
2022/07/06 05:31:09;;;;;;;;;;;;;;;23.44;70.75;95292.59;5156762;27;2012;-49
2022/07/06 05:33:35;;;;;;;;;;;;;;;23.36;73.58;95299.22;5156967;27;991;-49
2022/07/06 05:36:01;;;;;;;;;;;;;;;23.07;72.06;95297.44;5156422;27;1022;-49
2022/07/06 05:38:27;;;;;;;;;;;;;;;22.80;74.16;95301.41;5157069;27;1048;-50
2022/07/06 05:40:53;;;;;;;;;;;;;;;23.00;72.24;95294.81;5156792;27;1011;-49
2022/07/06 05:43:19;;;;;;;;;;;;;;;22.84;73.77;95290.88;5144931;27;1164;-49
2022/07/06 05:45:45;;;;;;;;;;;;;;;22.81;75.10;95294.06;5135895;27;1030;-49
2022/07/06 05:50:56;;;;;;;;;;;;;;;22.93;75.18;95296.81;5135783;27;1906;-49
2022/07/06 05:53:22;;;;;;;;;;;;;;;23.07;74.25;95292.84;5135607;27;1020;-49
2022/07/06 05:55:48;;;;;;;;;;;;;;;23.15;69.43;95292.47;5135631;27;980;-49
2022/07/06 05:58:14;;;;;;;;;;;;;;;23.23;70.83;95296.75;5135644;27;1020;-49
2022/07/06 06:00:40;;;;;;;;;;;;;;;23.39;70.45;95295.19;5135448;27;1011;-49
2022/07/06 06:03:06;;;;;;;;;;;;;;;23.48;70.59;95291.03;5135587;27;1044;-49
2022/07/06 06:05:32;;;;;;;;;;;;;;;23.62;70.30;95294.38;5135361;27;1036;-49
2022/07/06 06:07:58;;;;;;;;;;;;;;;23.69;70.38;95295.03;5135597;27;948;-49
2022/07/06 06:10:25;;;;;;;;;;;;;;;23.84;69.01;95291.03;5135350;27;1992;-48
2022/07/06 06:12:51;;;;;;;;;;;;;;;23.88;69.76;95295.75;5135455;27;956;-49
2022/07/06 06:15:17;;;;;;;;;;;;;;;23.91;70.70;95302.66;5135069;27;1090;-49
2022/07/06 06:17:43;;;;;;;;;;;;;;;23.97;70.05;95302.50;5135173;27;1044;-49
2022/07/06 06:20:11;;;;;;;;;;;;;;;23.90;70.62;95300.97;5135366;27;1036;-49
2022/07/06 06:22:46;;;;;;;;;;;;;;;23.92;72.14;95296.94;5135317;27;956;-49
2022/07/06 06:25:13;;;;;;;;;;;;;;;23.95;71.04;95307.38;5134925;27;1245;-50
2022/07/06 06:27:39;;;;;;;;;;;;;;;24.10;70.79;95306.03;5135014;27;1036;-49
2022/07/06 06:30:06;;;;;;;;;;;;;;;24.12;70.96;95296.50;5134924;27;1901;-49
2022/07/06 06:32:32;;;;;;;;;;;;;;;24.09;71.92;95287.97;5134892;27;1017;-49
2022/07/06 06:34:58;;;;;;;;;;;;;;;24.11;71.01;95288.56;5135046;27;992;-49
2022/07/06 06:37:24;;;;;;;;;;;;;;;24.24;70.47;95291.00;5135104;27;1043;-49
2022/07/06 06:39:50;;;;;;;;;;;;;;;24.25;70.44;95284.47;5135065;27;1047;-49
2022/07/06 06:42:16;;;;;;;;;;;;;;;24.18;67.97;95289.25;5137445;27;1168;-49
2022/07/06 06:44:42;;;;;;;;;;;;;;;24.40;70.62;95300.34;5155525;27;971;-49
2022/07/06 06:47:08;;;;;;;;;;;;;;;24.56;66.03;95301.47;5155501;27;1047;-49
2022/07/06 06:49:34;;;;;;;;;;;;;;;24.55;67.34;95297.09;5155620;27;1987;-49
2022/07/06 06:52:00;;;;;;;;;;;;;;;24.58;66.34;95296.59;5155390;27;1004;-49
2022/07/06 06:54:26;;;;;;;;;;;;;;;24.55;66.52;95297.09;5155577;27;1087;-49
2022/07/06 06:56:52;;;;;;;;;;;;;;;24.78;67.27;95290.66;5155177;27;1020;-49
2022/07/06 06:59:18;;;;;;;;;;;;;;;24.95;65.34;95296.16;5155143;27;980;-49
2022/07/06 07:01:44;;;;;;;;;;;;;;;24.87;64.27;95288.34;5155315;27;1016;-49
2022/07/06 07:04:11;;;;;;;;;;;;;;;25.05;65.59;95285.38;5154998;27;1023;-49
2022/07/06 07:06:37;;;;;;;;;;;;;;;25.05;65.95;95290.84;5154997;27;1024;-49
2022/07/06 07:09:04;;;;;;;;;;;;;;;25.21;65.80;95294.66;5155052;27;1909;-49
2022/07/06 07:11:30;;;;;;;;;;;;;;;25.16;64.85;95289.09;5155148;27;1031;-49
2022/07/06 07:13:56;;;;;;;;;;;;;;;25.24;64.98;95296.91;5155059;27;1099;-49
2022/07/06 07:16:24;;;;;;;;;;;;;;;25.47;66.36;95292.34;5155412;27;1048;-49
2022/07/06 07:18:50;;;;;;;;;;;;;;;25.57;63.09;95281.50;5155114;27;1015;-49
2022/07/06 07:21:16;;;;;;;;;;;;;;;25.70;65.45;95286.63;5155047;27;975;-49
2022/07/06 07:23:42;;;;;;;;;;;;;;;25.65;64.99;95283.84;5154710;27;1030;-49
2022/07/06 07:26:08;;;;;;;;;;;;;;;25.62;63.46;95278.03;5154828;27;1075;-49
2022/07/06 07:28:35;;;;;;;;;;;;;;;25.79;65.25;95278.81;5154812;27;1004;-49
2022/07/06 07:31:01;;;;;;;;;;;;;;;25.93;63.00;95278.47;5155108;27;1960;-49
2022/07/06 07:33:27;;;;;;;;;;;;;;;25.88;62.88;95281.94;5155001;27;1126;-49
2022/07/06 07:35:53;;;;;;;;;;;;;;;25.97;62.52;95277.72;5154906;27;1014;-49
2022/07/06 07:38:19;;;;;;;;;;;;;;;26.13;62.29;95278.72;5154759;27;1054;-49
2022/07/06 07:40:45;;;;;;;;;;;;;;;26.33;60.71;95269.88;5154969;27;1031;-49
2022/07/06 07:43:11;;;;;;;;;;;;;;;26.51;60.29;95276.13;5143894;27;1219;-49
2022/07/06 07:45:37;;;;;;;;;;;;;;;26.53;59.38;95277.50;5134065;28;1076;-49
2022/07/06 07:48:03;;;;;;;;;;;;;;;26.55;61.60;95269.03;5134077;28;1057;-49
2022/07/06 07:50:29;;;;;;;;;;;;;;;26.48;60.29;95274.72;5134429;28;1938;-49
2022/07/06 07:52:55;;;;;;;;;;;;;;;26.51;60.25;95276.94;5134017;28;1012;-49
2022/07/06 07:55:21;;;;;;;;;;;;;;;26.42;60.40;95275.75;5134091;28;1037;-49
2022/07/06 07:57:47;;;;;;;;;;;;;;;26.62;60.00;95276.00;5133837;28;969;-49
2022/07/06 08:00:13;;;;;;;;;;;;;;;26.65;58.56;95274.63;5134083;28;996;-49
2022/07/06 08:02:39;;;;;;;;;;;;;;;26.93;57.32;95269.97;5134006;28;1015;-49
2022/07/06 08:05:06;;;;;;;;;;;;;;;27.08;56.69;95262.69;5133843;28;965;-49
2022/07/06 08:07:32;;;;;;;;;;;;;;;27.22;56.24;95263.06;5133956;28;1025;-49
2022/07/06 08:09:58;;;;;;;;;;;;;;;27.28;55.18;95255.72;5133913;28;1976;-49
2022/07/06 08:12:24;;;;;;;;;;;;;;;26.78;57.49;95255.00;5133589;28;1181;-49
2022/07/06 08:14:50;;;;;;;;;;;;;;;26.50;59.90;95258.81;5133865;28;1036;-49
2022/07/06 08:17:16;;;;;;;;;;;;;;;27.01;58.64;95255.75;5133547;28;909;-49
2022/07/06 08:19:42;;;;;;;;;;;;;;;26.86;55.08;95260.03;5133952;28;1008;-49
2022/07/06 08:22:09;;;;;;;;;;;;;;;26.63;57.52;95265.84;5133786;28;1007;-49
2022/07/06 08:24:35;;;;;;;;;;;;;;;26.52;57.00;95264.06;5133425;28;1099;-49
2022/07/06 08:27:03;;;;;;;;;;;;;;;26.48;56.39;95263.75;5133770;28;987;-49
2022/07/06 08:29:29;;;;;;;;;;;;;;;26.72;56.92;95264.28;5133444;28;1964;-50
2022/07/06 08:31:55;;;;;;;;;;;;;;;26.90;54.18;95259.50;5133700;28;1075;-49
2022/07/06 08:34:21;;;;;;;;;;;;;;;27.03;53.55;95259.06;5133431;27;984;-49
2022/07/06 08:36:47;;;;;;;;;;;;;;;26.86;55.74;95253.72;5136915;27;1079;-49
2022/07/06 08:39:13;;;;;;;;;;;;;;;26.84;55.21;95255.88;5137099;27;961;-50
2022/07/06 08:41:41;;;;;;;;;;;;;;;26.72;56.76;95264.28;5137294;27;977;-49
2022/07/06 08:44:07;;;;;;;;;;;;;;;26.57;56.35;95261.38;5155438;27;1157;-49
2022/07/06 08:46:35;;;;;;;;;;;;;;;27.03;56.48;95264.56;5158077;27;972;-49
2022/07/06 08:49:01;;;;;;;;;;;;;;;27.04;54.29;95267.03;5157659;27;1984;-49
2022/07/06 08:51:27;;;;;;;;;;;;;;;27.51;53.95;95270.13;5157909;27;1039;-49
2022/07/06 08:53:54;;;;;;;;;;;;;;;27.65;54.44;95272.16;5157710;27;1114;-49
2022/07/06 08:56:21;;;;;;;;;;;;;;;27.48;53.09;95273.44;5157701;27;977;-50
2022/07/06 08:58:47;;;;;;;;;;;;;;;27.14;56.39;95266.28;5157470;27;1074;-50
2022/07/06 09:01:13;;;;;;;;;;;;;;;26.98;55.71;95272.75;5157791;27;1043;-50
2022/07/06 09:03:45;;;;;;;;;;;;;;;26.90;54.82;95271.31;5157575;27;995;-50
2022/07/06 09:06:15;;;;;;;;;;;;;;;26.80;54.42;95269.28;5157386;27;1071;-50
2022/07/06 09:08:41;;;;;;;;;;;;;;;27.01;55.69;95272.22;5157458;27;1010;-50
2022/07/06 09:11:07;;;;;;;;;;;;;;;27.17;54.44;95278.66;5157285;27;1909;-50
2022/07/06 09:13:33;;;;;;;;;;;;;;;27.50;54.96;95269.31;5139075;27;1181;-50
2022/07/06 09:16:13;;;;;;;;;;;;;;;27.84;52.13;95275.25;5157324;27;1910;-50
2022/07/06 09:18:41;;;;;;;;;;;;;;;28.24;53.56;95265.56;5157543;27;1018;-50
2022/07/06 09:21:08;;;;;;;;;;;;;;;28.26;52.77;95269.97;5157135;27;1020;-50
2022/07/06 09:23:35;;;;;;;;;;;;;;;27.83;53.28;95270.03;5157013;27;1126;-50
2022/07/06 09:26:03;;;;;;;;;;;;;;;27.68;54.29;95269.97;5156977;27;1279;-49
2022/07/06 09:28:44;;;;;;;;;;;;;;;27.77;53.72;95269.19;5157162;27;1022;-49
2022/07/06 09:31:11;;;;;;;;;;;;;;;28.01;52.33;95268.78;5156696;27;1890;-50
2022/07/06 09:33:38;;;;;;;;;;;;;;;28.01;52.17;95268.78;5156853;27;1044;-50
2022/07/06 09:36:05;;;;;;;;;;;;;;;28.16;54.12;95266.09;5156469;27;1067;-49
2022/07/06 09:38:31;;;;;;;;;;;;;;;28.01;53.08;95260.53;5156619;27;979;-49
2022/07/06 09:40:57;;;;;;;;;;;;;;;27.82;52.96;95258.22;5156825;27;1051;-49
2022/07/06 09:43:24;;;;;;;;;;;;;;;27.46;55.39;95257.22;5144288;27;1219;-49
2022/07/06 09:45:50;;;;;;;;;;;;;;;27.14;54.68;95258.06;5135470;27;984;-50
2022/07/06 09:48:23;;;;;;;;;;;;;;;26.91;54.29;95259.25;5135866;27;1062;-49
2022/07/06 09:50:53;;;;;;;;;;;;;;;26.88;55.27;95257.88;5135549;27;1913;-50
2022/07/06 09:53:20;;;;;;;;;;;;;;;26.53;54.51;95254.75;5135641;27;1012;-49
2022/07/06 09:55:47;;;;;;;;;;;;;;;26.82;56.03;95253.41;5135531;27;1059;-49
2022/07/06 09:58:14;;;;;;;;;;;;;;;27.24;53.76;95257.28;5135730;27;1048;-50
2022/07/06 10:00:41;;;;;;;;;;;;;;;27.40;54.38;95259.09;5135560;27;1015;-49
2022/07/06 10:03:08;;;;;;;;;;;;;;;27.55;52.81;95249.31;5135489;27;1012;-50
2022/07/06 10:05:38;;;;;;;;;;;;;;;27.23;53.00;95247.44;5135047;27;1037;-49
2022/07/06 10:08:05;;;;;;;;;;;;;;;27.06;52.99;95259.38;5135382;27;1202;-49
2022/07/06 10:10:32;;;;;;;;;;;;;;;26.70;54.69;95255.50;5135311;27;1906;-49
2022/07/06 10:12:59;;;;;;;;;;;;;;;26.50;54.96;95256.09;5135471;27;962;-49
2022/07/06 10:15:26;;;;;;;;;;;;;;;26.33;54.77;95258.09;5135305;27;1031;-49
2022/07/06 10:17:54;;;;;;;;;;;;;;;26.02;56.28;95255.84;5135294;27;1043;-50
2022/07/06 10:20:20;;;;;;;;;;;;;;;25.81;57.40;95257.47;5134976;27;988;-49
2022/07/06 10:22:49;;;;;;;;;;;;;;;25.77;59.09;95256.34;5135442;27;970;-50
2022/07/06 10:25:17;;;;;;;;;;;;;;;25.84;57.75;95253.41;5134743;27;1099;-49
2022/07/06 10:27:44;;;;;;;;;;;;;;;25.82;57.44;95258.28;5135183;27;1074;-49
2022/07/06 10:30:11;;;;;;;;;;;;;;;25.84;57.97;95248.75;5134839;27;1914;-49
2022/07/06 10:32:39;;;;;;;;;;;;;;;26.07;58.82;95241.41;5135039;27;976;-52
2022/07/06 10:35:05;;;;;;;;;;;;;;;26.15;60.29;95243.69;5134797;27;1035;-49
2022/07/06 10:37:33;;;;;;;;;;;;;;;26.16;56.96;95236.28;5135150;27;960;-49
2022/07/06 10:42:49;;;;;;;;;;;;;;;26.09;57.03;95240.03;5141449;27;1208;-49
2022/07/06 10:45:20;;;;;;;;;;;;;;;26.19;56.87;95242.06;5155274;27;1043;-49
2022/07/06 10:47:46;;;;;;;;;;;;;;;26.43;56.44;95242.59;5155564;27;1051;-49
2022/07/06 10:50:12;;;;;;;;;;;;;;;26.75;53.99;95241.84;5155165;27;1909;-49
2022/07/06 10:52:47;;;;;;;;;;;;;;;26.69;55.24;95245.59;5155389;27;1032;-49
2022/07/06 10:55:29;;;;;;;;;;;;;;;26.74;53.42;95247.59;5155175;27;1040;-49
2022/07/06 10:57:55;;;;;;;;;;;;;;;26.81;53.69;95240.78;5154748;27;1006;-49
2022/07/06 11:00:21;;;;;;;;;;;;;;;26.67;54.46;95240.41;5155313;27;961;-49
2022/07/06 11:02:47;;;;;;;;;;;;;;;26.48;55.16;95247.28;5155378;27;1020;-49
2022/07/06 11:05:32;;;;;;;;;;;;;;;26.37;55.47;95240.91;5154924;27;963;-49
2022/07/06 11:08:01;;;;;;;;;;;;;;;26.35;56.55;95248.56;5155222;27;1020;-49
2022/07/06 11:10:27;;;;;;;;;;;;;;;26.45;56.08;95245.91;5154952;27;1982;-49
2022/07/06 11:13:02;;;;;;;;;;;;;;;26.66;54.21;95232.44;5155336;27;1024;-49
2022/07/06 11:15:46;;;;;;;;;;;;;;;26.97;53.61;95235.44;5155035;27;1024;-49
2022/07/06 11:18:12;;;;;;;;;;;;;;;27.31;54.08;95238.72;5155536;27;2083;-49
2022/07/06 11:20:39;;;;;;;;;;;;;;;27.54;54.38;95231.16;5154932;27;1078;-49
2022/07/06 11:23:05;;;;;;;;;;;;;;;27.57;53.11;95227.91;5154942;27;1027;-50
2022/07/06 11:25:31;;;;;;;;;;;;;;;27.75;51.08;95215.63;5154859;27;1083;-49
2022/07/06 11:27:58;;;;;;;;;;;;;;;27.45;51.95;95220.69;5155182;27;961;-49
2022/07/06 11:30:24;;;;;;;;;;;;;;;27.22;52.90;95208.19;5154864;27;1980;-49
2022/07/06 11:32:50;;;;;;;;;;;;;;;27.05;52.48;95211.09;5154864;27;1047;-49
2022/07/06 11:35:22;;;;;;;;;;;;;;;26.77;52.19;95212.25;5154668;27;1278;-49
2022/07/06 11:37:48;;;;;;;;;;;;;;;26.83;53.22;95211.19;5154896;27;1031;-49
2022/07/06 11:40:18;;;;;;;;;;;;;;;26.95;52.59;95207.44;5155026;27;1034;-49
2022/07/06 11:42:53;;;;;;;;;;;;;;;26.95;52.79;95202.75;5148094;27;1160;-50
2022/07/06 11:45:26;;;;;;;;;;;;;;;26.95;52.39;95200.03;5134147;28;949;-49
2022/07/06 11:48:09;;;;;;;;;;;;;;;26.94;53.02;95209.34;5133925;28;981;-50
2022/07/06 11:50:35;;;;;;;;;;;;;;;26.77;52.15;95214.13;5134049;28;2008;-51
2022/07/06 11:53:01;;;;;;;;;;;;;;;26.85;53.08;95206.25;5134007;28;1024;-50
2022/07/06 11:55:28;;;;;;;;;;;;;;;26.92;53.01;95208.78;5134046;28;1020;-49
2022/07/06 11:57:57;;;;;;;;;;;;;;;26.86;51.74;95210.66;5133883;28;1051;-49
2022/07/06 12:00:23;;;;;;;;;;;;;;;27.00;52.38;95210.22;5133864;28;1016;-49
2022/07/06 12:03:01;;;;;;;;;;;;;;;27.38;52.30;95195.41;5133771;28;1861;-49
2022/07/06 12:05:31;;;;;;;;;;;;;;;27.69;52.95;95200.22;5133999;28;1067;-49
2022/07/06 12:08:06;;;;;;;;;;;;;;;27.86;50.64;95198.09;5133917;28;981;-49
2022/07/06 12:10:37;;;;;;;;;;;;;;;27.94;50.22;95194.84;5136764;27;1918;-50
2022/07/06 12:13:04;;;;;;;;;;;;;;;27.92;51.63;95188.78;5137454;27;1003;-50
2022/07/06 12:15:30;;;;;;;;;;;;;;;27.93;50.10;95181.41;5138151;27;1202;-50
2022/07/06 12:17:56;;;;;;;;;;;;;;;27.82;49.88;95175.81;5137761;27;1044;-50
2022/07/06 12:20:24;;;;;;;;;;;;;;;28.00;51.23;95190.19;5137778;27;965;-50
2022/07/06 12:23:00;;;;;;;;;;;;;;;27.91;49.43;95180.84;5137574;27;1047;-50
2022/07/06 12:25:33;;;;;;;;;;;;;;;28.09;49.43;95177.56;5137391;27;1242;-50
2022/07/06 12:27:59;;;;;;;;;;;;;;;27.82;50.17;95184.06;5137553;27;1024;-50
2022/07/06 12:30:25;;;;;;;;;;;;;;;27.58;49.30;95180.09;5137417;27;1909;-50
2022/07/06 12:33:10;;;;;;;;;;;;;;;27.53;50.28;95178.19;5137407;27;920;-50
2022/07/06 12:35:36;;;;;;;;;;;;;;;27.72;49.71;95172.22;5137174;27;1044;-49
2022/07/06 12:38:02;;;;;;;;;;;;;;;27.70;48.67;95168.88;5137022;27;1087;-50
2022/07/06 12:40:28;;;;;;;;;;;;;;;27.57;48.75;95171.06;5137343;27;1024;-49
2022/07/06 12:42:55;;;;;;;;;;;;;;;27.75;48.61;95157.94;5145217;27;1153;-50
2022/07/06 12:45:26;;;;;;;;;;;;;;;27.75;51.14;95156.00;5158057;27;989;-50
2022/07/06 12:47:59;;;;;;;;;;;;;;;27.51;49.53;95160.31;5157929;27;1063;-50
2022/07/06 12:50:32;;;;;;;;;;;;;;;27.30;50.71;95153.88;5157743;27;1992;-50
2022/07/06 12:52:59;;;;;;;;;;;;;;;27.21;49.85;95156.28;5157661;27;1016;-50
2022/07/06 12:55:26;;;;;;;;;;;;;;;27.20;49.76;95154.63;5158023;27;1057;-50
2022/07/06 12:57:52;;;;;;;;;;;;;;;27.17;50.18;95161.50;5157726;27;999;-50
2022/07/06 13:00:19;;;;;;;;;;;;;;;27.16;52.62;95159.00;5157751;27;1074;-49
2022/07/06 13:02:46;;;;;;;;;;;;;;;27.24;52.10;95150.25;5157534;27;1010;-49
2022/07/06 13:05:14;;;;;;;;;;;;;;;27.36;50.25;95159.16;5157286;27;1065;-49
2022/07/06 13:07:46;;;;;;;;;;;;;;;27.37;50.04;95157.22;5157378;27;1082;-48